Terminal Aerodrome Forecast
Issued by NWS

Home | Current Version | Previous Version | Text Only | Print | Product List | Glossary On
Versions: 1 2 3 4 5 6 7 8 9 10 11 12 13 14 15 16 17 18
843
FTUS46 KEKA 051125
TAFCEC
TAF
KCEC 051125Z 0512/0612 04005KT P6SM SCT250
     FM051800 36008KT P6SM SCT035
     FM052200 29009KT P6SM VCSH BKN040
      TEMPO 0523/0603 6SM -SHRA BKN035
     FM060300 20010KT 6SM SHRA OVC025=

USA.gov is the U.S. government's official web portal to all federal, state and local government web resources and services.